Rock, Louisiana
Current Conditions -  °F | °C
As of 11:53 PM on Saturday 22 Nov 2014 (Local Time) from KAEX Reporting Station
Light Rain Light Rain  
Wind Chill: 63°   Ceiling: 1000
Heat Index: 63°   Visibility: 8mi
Dew Point: 61°   Wind: 14mph
Humidity: 93%   Direction: 130°SE
Pressure: 29.79"   Gusts: NA
Location:  31.503°N, 92.6476°W
Report Text: KAEX 230553Z 13012KT 8SM -RA OVC010 17/16 A2979 RMK AO2 CIG 009V012 SLP089 P0000 60001 T01720161 10194 20172 402170122 58031
Loading
Personal Weather Stations






























Interactive Weather Map New forecast layout! Learn more

10-Day Weather Forecast

Advertisements
Track Severe Weather on mobile